sensor_id;sensor_type;location;lat;lon;timestamp;pressure;altitude;pressure_sealevel;temperature;humidity
10946;BME280;5525;42.648;23.368;2023-04-15T00:01:35;93891.63;;;7.25;100.00
10946;BME280;5525;42.648;23.368;2023-04-15T00:04:02;93889.59;;;7.22;100.00
10946;BME280;5525;42.648;23.368;2023-04-15T00:06:28;93904.88;;;7.30;100.00
10946;BME280;5525;42.648;23.368;2023-04-15T00:08:57;93908.59;;;7.08;100.00
10946;BME280;5525;42.648;23.368;2023-04-15T00:11:23;93901.44;;;7.21;100.00
10946;BME280;5525;42.648;23.368;2023-04-15T00:13:50;93911.69;;;7.27;100.00
10946;BME280;5525;42.648;23.368;2023-04-15T00:16:17;93932.06;;;7.20;100.00
10946;BME280;5525;42.648;23.368;2023-04-15T00:18:43;93950.63;;;6.44;100.00
10946;BME280;5525;42.648;23.368;2023-04-15T00:21:10;93926.03;;;6.59;100.00
10946;BME280;5525;42.648;23.368;2023-04-15T00:23:36;93926.63;;;6.90;100.00
10946;BME280;5525;42.648;23.368;2023-04-15T00:26:04;93933.19;;;7.19;100.00
10946;BME280;5525;42.648;23.368;2023-04-15T00:28:31;93927.94;;;7.31;100.00
10946;BME280;5525;42.648;23.368;2023-04-15T00:30:58;93934.88;;;7.40;100.00
10946;BME280;5525;42.648;23.368;2023-04-15T00:33:24;93916.66;;;7.46;100.00
10946;BME280;5525;42.648;23.368;2023-04-15T00:35:51;93916.91;;;7.61;100.00
10946;BME280;5525;42.648;23.368;2023-04-15T00:38:18;93903.38;;;7.58;100.00
10946;BME280;5525;42.648;23.368;2023-04-15T00:40:44;93922.28;;;7.61;100.00
10946;BME280;5525;42.648;23.368;2023-04-15T00:43:12;93937.00;;;7.64;100.00
10946;BME280;5525;42.648;23.368;2023-04-15T00:45:40;93940.09;;;7.74;100.00
10946;BME280;5525;42.648;23.368;2023-04-15T00:48:07;93925.09;;;7.73;100.00
10946;BME280;5525;42.648;23.368;2023-04-15T00:50:34;93937.03;;;7.84;100.00
10946;BME280;5525;42.648;23.368;2023-04-15T00:53:01;93942.19;;;7.98;100.00
10946;BME280;5525;42.648;23.368;2023-04-15T00:55:28;93938.09;;;7.92;100.00
10946;BME280;5525;42.648;23.368;2023-04-15T00:57:55;93932.47;;;7.85;100.00
10946;BME280;5525;42.648;23.368;2023-04-15T01:00:23;93942.88;;;7.86;100.00
10946;BME280;5525;42.648;23.368;2023-04-15T01:02:51;93944.34;;;8.04;100.00
10946;BME280;5525;42.648;23.368;2023-04-15T01:05:17;93940.44;;;8.02;100.00
10946;BME280;5525;42.648;23.368;2023-04-15T01:07:45;93935.63;;;8.07;100.00
10946;BME280;5525;42.648;23.368;2023-04-15T01:10:12;93932.38;;;8.02;100.00
10946;BME280;5525;42.648;23.368;2023-04-15T01:12:38;93930.34;;;7.99;100.00
10946;BME280;5525;42.648;23.368;2023-04-15T01:15:06;93931.84;;;8.08;100.00
10946;BME280;5525;42.648;23.368;2023-04-15T01:17:36;93930.97;;;7.96;100.00
10946;BME280;5525;42.648;23.368;2023-04-15T01:20:03;93925.59;;;7.96;100.00
10946;BME280;5525;42.648;23.368;2023-04-15T01:22:32;93920.25;;;7.87;100.00
10946;BME280;5525;42.648;23.368;2023-04-15T01:25:05;93926.44;;;7.88;100.00
10946;BME280;5525;42.648;23.368;2023-04-15T01:27:34;93918.53;;;7.83;100.00
10946;BME280;5525;42.648;23.368;2023-04-15T01:30:01;93912.75;;;7.72;100.00
10946;BME280;5525;42.648;23.368;2023-04-15T01:32:29;93920.66;;;7.69;100.00
10946;BME280;5525;42.648;23.368;2023-04-15T01:34:56;93912.91;;;7.76;100.00
10946;BME280;5525;42.648;23.368;2023-04-15T01:37:23;93912.09;;;7.75;100.00
10946;BME280;5525;42.648;23.368;2023-04-15T01:39:50;93920.56;;;7.65;100.00
10946;BME280;5525;42.648;23.368;2023-04-15T01:42:17;93924.00;;;7.66;100.00
10946;BME280;5525;42.648;23.368;2023-04-15T01:44:45;93917.97;;;7.69;100.00
10946;BME280;5525;42.648;23.368;2023-04-15T01:47:12;93916.78;;;7.58;100.00
10946;BME280;5525;42.648;23.368;2023-04-15T01:49:39;93925.50;;;7.46;100.00
10946;BME280;5525;42.648;23.368;2023-04-15T01:52:06;93922.66;;;7.51;100.00
10946;BME280;5525;42.648;23.368;2023-04-15T01:54:32;93922.03;;;7.46;100.00
10946;BME280;5525;42.648;23.368;2023-04-15T01:56:59;93937.38;;;7.45;100.00
10946;BME280;5525;42.648;23.368;2023-04-15T01:59:26;93948.75;;;7.42;100.00
10946;BME280;5525;42.648;23.368;2023-04-15T02:01:54;93940.66;;;6.96;100.00
10946;BME280;5525;42.648;23.368;2023-04-15T02:04:21;93946.47;;;6.98;100.00
10946;BME280;5525;42.648;23.368;2023-04-15T02:06:48;93952.03;;;6.93;100.00
10946;BME280;5525;42.648;23.368;2023-04-15T02:09:14;93944.91;;;7.06;100.00
10946;BME280;5525;42.648;23.368;2023-04-15T02:11:41;93943.13;;;7.18;100.00
10946;BME280;5525;42.648;23.368;2023-04-15T02:14:08;93935.56;;;7.20;100.00
10946;BME280;5525;42.648;23.368;2023-04-15T02:16:34;93919.78;;;7.19;100.00
10946;BME280;5525;42.648;23.368;2023-04-15T02:19:02;93925.13;;;7.27;100.00
10946;BME280;5525;42.648;23.368;2023-04-15T02:21:29;93927.19;;;7.22;100.00
10946;BME280;5525;42.648;23.368;2023-04-15T02:23:56;93930.81;;;7.26;100.00
10946;BME280;5525;42.648;23.368;2023-04-15T02:26:22;93931.03;;;7.04;100.00
10946;BME280;5525;42.648;23.368;2023-04-15T02:28:50;93937.81;;;6.93;100.00
10946;BME280;5525;42.648;23.368;2023-04-15T02:31:17;93928.38;;;6.86;100.00
10946;BME280;5525;42.648;23.368;2023-04-15T02:33:43;93923.47;;;6.88;100.00
10946;BME280;5525;42.648;23.368;2023-04-15T02:36:12;93918.75;;;6.77;100.00
10946;BME280;5525;42.648;23.368;2023-04-15T02:38:39;93916.06;;;6.77;100.00
10946;BME280;5525;42.648;23.368;2023-04-15T02:41:08;93920.50;;;6.73;100.00
10946;BME280;5525;42.648;23.368;2023-04-15T02:43:34;93916.53;;;6.87;100.00
10946;BME280;5525;42.648;23.368;2023-04-15T02:46:02;93928.69;;;6.85;100.00
10946;BME280;5525;42.648;23.368;2023-04-15T02:48:28;93929.00;;;6.83;100.00
10946;BME280;5525;42.648;23.368;2023-04-15T02:51:11;93934.03;;;6.76;100.00
10946;BME280;5525;42.648;23.368;2023-04-15T02:53:38;93943.09;;;6.55;100.00
10946;BME280;5525;42.648;23.368;2023-04-15T02:56:06;93936.59;;;6.30;100.00
10946;BME280;5525;42.648;23.368;2023-04-15T02:58:33;93940.19;;;6.26;100.00
10946;BME280;5525;42.648;23.368;2023-04-15T03:01:00;93944.66;;;6.30;100.00
10946;BME280;5525;42.648;23.368;2023-04-15T03:03:27;93959.44;;;6.28;100.00
10946;BME280;5525;42.648;23.368;2023-04-15T03:05:54;93963.06;;;6.15;100.00
10946;BME280;5525;42.648;23.368;2023-04-15T03:08:22;93955.81;;;6.07;100.00
10946;BME280;5525;42.648;23.368;2023-04-15T03:10:48;93953.44;;;6.05;100.00
10946;BME280;5525;42.648;23.368;2023-04-15T03:13:16;93962.72;;;5.99;100.00
10946;BME280;5525;42.648;23.368;2023-04-15T03:15:45;93970.41;;;5.92;100.00
10946;BME280;5525;42.648;23.368;2023-04-15T03:18:12;93979.25;;;6.01;100.00
10946;BME280;5525;42.648;23.368;2023-04-15T03:20:38;93977.31;;;5.85;100.00
10946;BME280;5525;42.648;23.368;2023-04-15T03:23:05;93985.69;;;5.53;100.00
10946;BME280;5525;42.648;23.368;2023-04-15T03:25:33;93988.84;;;5.55;100.00
10946;BME280;5525;42.648;23.368;2023-04-15T03:28:01;93987.13;;;5.59;100.00
10946;BME280;5525;42.648;23.368;2023-04-15T03:30:28;93983.09;;;5.70;100.00
10946;BME280;5525;42.648;23.368;2023-04-15T03:32:55;93989.81;;;5.59;100.00
10946;BME280;5525;42.648;23.368;2023-04-15T03:35:22;93987.78;;;5.64;100.00
10946;BME280;5525;42.648;23.368;2023-04-15T03:37:49;93994.38;;;5.58;100.00
10946;BME280;5525;42.648;23.368;2023-04-15T03:40:16;94004.00;;;5.59;100.00
10946;BME280;5525;42.648;23.368;2023-04-15T03:42:44;94008.75;;;5.71;100.00
10946;BME280;5525;42.648;23.368;2023-04-15T03:45:10;94006.06;;;5.62;100.00
10946;BME280;5525;42.648;23.368;2023-04-15T03:47:37;94011.19;;;5.50;100.00
10946;BME280;5525;42.648;23.368;2023-04-15T03:50:04;94023.78;;;5.50;100.00
10946;BME280;5525;42.648;23.368;2023-04-15T03:52:31;94028.34;;;5.49;100.00
10946;BME280;5525;42.648;23.368;2023-04-15T03:54:58;94020.47;;;5.44;100.00
10946;BME280;5525;42.648;23.368;2023-04-15T03:57:25;94020.09;;;5.37;100.00
10946;BME280;5525;42.648;23.368;2023-04-15T03:59:53;94023.13;;;5.44;100.00
10946;BME280;5525;42.648;23.368;2023-04-15T04:02:19;94022.56;;;5.56;100.00
10946;BME280;5525;42.648;23.368;2023-04-15T04:04:47;94024.31;;;5.30;100.00
10946;BME280;5525;42.648;23.368;2023-04-15T04:07:14;94025.03;;;5.44;100.00
10946;BME280;5525;42.648;23.368;2023-04-15T04:09:41;94032.78;;;5.54;100.00
10946;BME280;5525;42.648;23.368;2023-04-15T04:12:08;94039.13;;;5.66;100.00
10946;BME280;5525;42.648;23.368;2023-04-15T04:14:34;94037.06;;;5.55;100.00
10946;BME280;5525;42.648;23.368;2023-04-15T04:17:02;94032.09;;;5.79;100.00
10946;BME280;5525;42.648;23.368;2023-04-15T04:19:29;94034.78;;;5.79;100.00
10946;BME280;5525;42.648;23.368;2023-04-15T04:21:56;94033.22;;;5.78;100.00
10946;BME280;5525;42.648;23.368;2023-04-15T04:24:23;94029.31;;;5.53;100.00
10946;BME280;5525;42.648;23.368;2023-04-15T04:26:50;94034.84;;;5.57;100.00
10946;BME280;5525;42.648;23.368;2023-04-15T04:29:16;94017.22;;;5.34;100.00
10946;BME280;5525;42.648;23.368;2023-04-15T04:31:43;94036.84;;;5.43;100.00
10946;BME280;5525;42.648;23.368;2023-04-15T04:34:11;94023.28;;;5.48;100.00
10946;BME280;5525;42.648;23.368;2023-04-15T04:36:38;94030.09;;;5.54;100.00
10946;BME280;5525;42.648;23.368;2023-04-15T04:39:04;94036.47;;;5.66;100.00
10946;BME280;5525;42.648;23.368;2023-04-15T04:41:31;94035.94;;;5.86;100.00
10946;BME280;5525;42.648;23.368;2023-04-15T04:43:58;94039.63;;;7.06;100.00
10946;BME280;5525;42.648;23.368;2023-04-15T04:46:24;94045.06;;;10.12;100.00
10946;BME280;5525;42.648;23.368;2023-04-15T04:48:51;94030.31;;;12.67;100.00
10946;BME280;5525;42.648;23.368;2023-04-15T04:51:19;94019.63;;;14.94;100.00
10946;BME280;5525;42.648;23.368;2023-04-15T04:53:46;94013.94;;;15.62;99.64
10946;BME280;5525;42.648;23.368;2023-04-15T04:56:13;94016.00;;;15.72;90.33
10946;BME280;5525;42.648;23.368;2023-04-15T04:58:39;94033.06;;;14.87;89.32
10946;BME280;5525;42.648;23.368;2023-04-15T05:01:06;94034.34;;;16.51;76.25
10946;BME280;5525;42.648;23.368;2023-04-15T05:03:33;94046.63;;;14.16;88.31
10946;BME280;5525;42.648;23.368;2023-04-15T05:06:00;94038.63;;;14.94;87.46
10946;BME280;5525;42.648;23.368;2023-04-15T05:08:28;94044.19;;;14.11;91.87
10946;BME280;5525;42.648;23.368;2023-04-15T05:10:55;94061.25;;;11.48;100.00
10946;BME280;5525;42.648;23.368;2023-04-15T05:13:22;94061.38;;;11.40;100.00
10946;BME280;5525;42.648;23.368;2023-04-15T05:15:48;94075.69;;;10.29;100.00
10946;BME280;5525;42.648;23.368;2023-04-15T05:18:15;94073.47;;;9.65;100.00
10946;BME280;5525;42.648;23.368;2023-04-15T05:20:42;94075.69;;;9.10;100.00
10946;BME280;5525;42.648;23.368;2023-04-15T05:23:08;94076.00;;;9.09;100.00
10946;BME280;5525;42.648;23.368;2023-04-15T05:25:36;94077.94;;;9.08;100.00
10946;BME280;5525;42.648;23.368;2023-04-15T05:28:03;94077.50;;;8.77;100.00
10946;BME280;5525;42.648;23.368;2023-04-15T05:30:30;94076.47;;;8.61;100.00
10946;BME280;5525;42.648;23.368;2023-04-15T05:32:56;94074.16;;;8.80;100.00
10946;BME280;5525;42.648;23.368;2023-04-15T05:35:23;94072.84;;;8.86;100.00
10946;BME280;5525;42.648;23.368;2023-04-15T05:37:50;94063.47;;;8.92;100.00
10946;BME280;5525;42.648;23.368;2023-04-15T05:40:16;94071.34;;;8.97;100.00
10946;BME280;5525;42.648;23.368;2023-04-15T05:42:45;94062.44;;;9.05;100.00
10946;BME280;5525;42.648;23.368;2023-04-15T05:45:12;94073.97;;;9.06;100.00
10946;BME280;5525;42.648;23.368;2023-04-15T05:47:39;94074.63;;;8.82;100.00
10946;BME280;5525;42.648;23.368;2023-04-15T05:50:06;94071.97;;;8.74;100.00
10946;BME280;5525;42.648;23.368;2023-04-15T05:52:32;94075.06;;;8.84;100.00
10946;BME280;5525;42.648;23.368;2023-04-15T05:54:59;94075.56;;;9.07;100.00
10946;BME280;5525;42.648;23.368;2023-04-15T05:57:26;94080.09;;;9.35;100.00
10946;BME280;5525;42.648;23.368;2023-04-15T05:59:54;94078.22;;;9.48;100.00
10946;BME280;5525;42.648;23.368;2023-04-15T06:02:21;94087.03;;;9.57;100.00
10946;BME280;5525;42.648;23.368;2023-04-15T06:04:48;94090.09;;;9.67;100.00
10946;BME280;5525;42.648;23.368;2023-04-15T06:07:14;94080.06;;;9.88;100.00
10946;BME280;5525;42.648;23.368;2023-04-15T06:09:41;94091.78;;;10.04;100.00
10946;BME280;5525;42.648;23.368;2023-04-15T06:12:09;94096.78;;;11.23;100.00
10946;BME280;5525;42.648;23.368;2023-04-15T06:14:37;94077.59;;;15.54;87.59
10946;BME280;5525;42.648;23.368;2023-04-15T06:17:06;94076.53;;;19.50;57.29
10946;BME280;5525;42.648;23.368;2023-04-15T06:19:33;94090.09;;;21.84;46.55
10946;BME280;5525;42.648;23.368;2023-04-15T06:22:00;94085.59;;;23.48;39.11
10946;BME280;5525;42.648;23.368;2023-04-15T06:24:27;94093.34;;;24.97;35.28
10946;BME280;5525;42.648;23.368;2023-04-15T06:26:54;94097.84;;;25.58;33.25
10946;BME280;5525;42.648;23.368;2023-04-15T06:29:21;94102.34;;;28.55;30.09
10946;BME280;5525;42.648;23.368;2023-04-15T06:31:48;94107.28;;;31.21;25.50
10946;BME280;5525;42.648;23.368;2023-04-15T06:34:16;94115.56;;;30.61;25.56
10946;BME280;5525;42.648;23.368;2023-04-15T06:36:43;94123.50;;;27.80;28.35
10946;BME280;5525;42.648;23.368;2023-04-15T06:39:10;94130.13;;;29.99;25.64
10946;BME280;5525;42.648;23.368;2023-04-15T06:41:36;94135.56;;;32.21;23.28
10946;BME280;5525;42.648;23.368;2023-04-15T06:44:03;94132.31;;;31.90;22.85
10946;BME280;5525;42.648;23.368;2023-04-15T06:46:30;94137.03;;;32.78;22.08
10946;BME280;5525;42.648;23.368;2023-04-15T06:48:57;94134.66;;;32.47;21.93
10946;BME280;5525;42.648;23.368;2023-04-15T06:51:25;94138.78;;;30.85;23.09
10946;BME280;5525;42.648;23.368;2023-04-15T06:53:52;94148.63;;;33.53;21.42
10946;BME280;5525;42.648;23.368;2023-04-15T06:56:18;94137.69;;;36.32;19.33
10946;BME280;5525;42.648;23.368;2023-04-15T06:58:46;94137.44;;;34.16;20.12
10946;BME280;5525;42.648;23.368;2023-04-15T07:01:12;94145.06;;;33.52;20.76
10946;BME280;5525;42.648;23.368;2023-04-15T07:03:39;94143.78;;;33.82;19.83
10946;BME280;5525;42.648;23.368;2023-04-15T07:06:07;94136.78;;;34.62;19.44
10946;BME280;5525;42.648;23.368;2023-04-15T07:08:35;94143.63;;;35.21;18.46
10946;BME280;5525;42.648;23.368;2023-04-15T07:11:02;94150.50;;;31.76;20.82
10946;BME280;5525;42.648;23.368;2023-04-15T07:13:30;94142.47;;;27.82;24.85
10946;BME280;5525;42.648;23.368;2023-04-15T07:15:56;94144.19;;;29.55;23.44
10946;BME280;5525;42.648;23.368;2023-04-15T07:18:23;94138.97;;;33.68;20.43
10946;BME280;5525;42.648;23.368;2023-04-15T07:20:50;94144.38;;;35.21;18.84
10946;BME280;5525;42.648;23.368;2023-04-15T07:23:17;94140.75;;;36.29;18.25
10946;BME280;5525;42.648;23.368;2023-04-15T07:25:45;94141.81;;;35.18;18.09
10946;BME280;5525;42.648;23.368;2023-04-15T07:28:11;94145.13;;;36.35;17.55
10946;BME280;5525;42.648;23.368;2023-04-15T07:30:38;94142.91;;;36.08;18.10
10946;BME280;5525;42.648;23.368;2023-04-15T07:33:05;94156.56;;;37.21;17.04
10946;BME280;5525;42.648;23.368;2023-04-15T07:35:32;94160.13;;;33.40;18.90
10946;BME280;5525;42.648;23.368;2023-04-15T07:37:59;94150.81;;;28.75;22.92
10946;BME280;5525;42.648;23.368;2023-04-15T07:40:26;94139.59;;;26.69;25.71
10946;BME280;5525;42.648;23.368;2023-04-15T07:42:54;94141.72;;;27.44;25.22
10946;BME280;5525;42.648;23.368;2023-04-15T07:45:22;94137.75;;;29.06;23.26
10946;BME280;5525;42.648;23.368;2023-04-15T07:47:49;94130.09;;;30.38;22.31
10946;BME280;5525;42.648;23.368;2023-04-15T07:50:16;94140.31;;;32.29;20.45
10946;BME280;5525;42.648;23.368;2023-04-15T07:52:44;94137.22;;;32.04;21.18
10946;BME280;5525;42.648;23.368;2023-04-15T07:55:10;94153.66;;;32.58;20.70
10946;BME280;5525;42.648;23.368;2023-04-15T07:57:37;94160.06;;;36.16;17.97
10946;BME280;5525;42.648;23.368;2023-04-15T08:00:07;94164.44;;;36.59;17.58
10946;BME280;5525;42.648;23.368;2023-04-15T08:02:34;94162.69;;;35.37;18.17
10946;BME280;5525;42.648;23.368;2023-04-15T08:05:01;94162.56;;;36.87;17.03
10946;BME280;5525;42.648;23.368;2023-04-15T08:07:28;94163.81;;;36.86;17.21
10946;BME280;5525;42.648;23.368;2023-04-15T08:09:55;94164.66;;;36.13;17.24
10946;BME280;5525;42.648;23.368;2023-04-15T08:12:22;94162.00;;;37.36;16.48
10946;BME280;5525;42.648;23.368;2023-04-15T08:14:49;94163.88;;;37.78;16.06
10946;BME280;5525;42.648;23.368;2023-04-15T08:17:17;94156.00;;;36.59;16.91
10946;BME280;5525;42.648;23.368;2023-04-15T08:19:44;94170.72;;;37.44;16.64
10946;BME280;5525;42.648;23.368;2023-04-15T08:22:12;94178.19;;;38.68;15.81
10946;BME280;5525;42.648;23.368;2023-04-15T08:24:39;94169.88;;;39.55;14.94
10946;BME280;5525;42.648;23.368;2023-04-15T08:27:06;94164.88;;;37.91;15.32
10946;BME280;5525;42.648;23.368;2023-04-15T08:29:33;94156.09;;;39.35;14.46
10946;BME280;5525;42.648;23.368;2023-04-15T08:32:00;94158.44;;;38.46;15.35
10946;BME280;5525;42.648;23.368;2023-04-15T08:34:29;94161.22;;;38.73;14.96
10946;BME280;5525;42.648;23.368;2023-04-15T08:36:55;94158.22;;;41.06;13.77
10946;BME280;5525;42.648;23.368;2023-04-15T08:39:22;94158.56;;;39.09;14.31
10946;BME280;5525;42.648;23.368;2023-04-15T08:41:51;94147.13;;;37.36;15.15
10946;BME280;5525;42.648;23.368;2023-04-15T08:44:22;94141.44;;;35.30;16.33
10946;BME280;5525;42.648;23.368;2023-04-15T08:46:50;94148.34;;;35.09;16.43
10946;BME280;5525;42.648;23.368;2023-04-15T08:49:18;94143.63;;;35.72;15.33
10946;BME280;5525;42.648;23.368;2023-04-15T08:51:48;94141.63;;;34.81;16.23
10946;BME280;5525;42.648;23.368;2023-04-15T08:54:15;94133.56;;;34.69;16.33
10946;BME280;5525;42.648;23.368;2023-04-15T08:56:41;94131.75;;;35.83;15.67
10946;BME280;5525;42.648;23.368;2023-04-15T08:59:08;94137.19;;;36.76;15.31
10946;BME280;5525;42.648;23.368;2023-04-15T09:01:36;94137.66;;;37.33;14.82
10946;BME280;5525;42.648;23.368;2023-04-15T09:04:04;94132.56;;;37.65;14.92
10946;BME280;5525;42.648;23.368;2023-04-15T09:06:32;94125.44;;;34.91;16.44
10946;BME280;5525;42.648;23.368;2023-04-15T09:09:00;94120.47;;;34.05;17.22
10946;BME280;5525;42.648;23.368;2023-04-15T09:11:29;94116.06;;;36.49;15.14
10946;BME280;5525;42.648;23.368;2023-04-15T09:13:56;94101.63;;;35.57;15.67
10946;BME280;5525;42.648;23.368;2023-04-15T09:16:23;94102.13;;;35.56;16.13
10946;BME280;5525;42.648;23.368;2023-04-15T09:18:49;94093.84;;;33.81;15.96
10946;BME280;5525;42.648;23.368;2023-04-15T09:21:16;94096.03;;;33.13;16.67
10946;BME280;5525;42.648;23.368;2023-04-15T09:23:53;94094.41;;;32.68;17.03
10946;BME280;5525;42.648;23.368;2023-04-15T09:26:30;94095.16;;;34.55;15.97
10946;BME280;5525;42.648;23.368;2023-04-15T09:29:03;94095.59;;;31.41;17.55
10946;BME280;5525;42.648;23.368;2023-04-15T09:31:29;94101.13;;;30.36;18.40
10946;BME280;5525;42.648;23.368;2023-04-15T09:33:56;94109.94;;;28.85;19.42
10946;BME280;5525;42.648;23.368;2023-04-15T09:36:23;94101.09;;;27.75;19.75
10946;BME280;5525;42.648;23.368;2023-04-15T09:38:54;94093.69;;;27.59;19.67
10946;BME280;5525;42.648;23.368;2023-04-15T09:41:21;94084.09;;;25.71;21.85
10946;BME280;5525;42.648;23.368;2023-04-15T09:43:50;94092.38;;;27.51;20.29
10946;BME280;5525;42.648;23.368;2023-04-15T09:46:16;94094.69;;;25.40;21.91
10946;BME280;5525;42.648;23.368;2023-04-15T09:48:43;94098.84;;;25.48;21.77
10946;BME280;5525;42.648;23.368;2023-04-15T09:51:10;94094.94;;;24.78;22.52
10946;BME280;5525;42.648;23.368;2023-04-15T09:53:37;94106.53;;;24.11;23.60
10946;BME280;5525;42.648;23.368;2023-04-15T09:56:04;94089.41;;;25.30;22.98
10946;BME280;5525;42.648;23.368;2023-04-15T09:58:34;94099.63;;;25.65;23.03
10946;BME280;5525;42.648;23.368;2023-04-15T10:01:04;94083.91;;;24.58;23.15
10946;BME280;5525;42.648;23.368;2023-04-15T10:03:33;94090.53;;;23.56;23.44
10946;BME280;5525;42.648;23.368;2023-04-15T10:06:01;94092.88;;;24.04;23.96
10946;BME280;5525;42.648;23.368;2023-04-15T10:08:31;94078.50;;;24.91;23.51
10946;BME280;5525;42.648;23.368;2023-04-15T10:11:00;94073.56;;;25.94;22.15
10946;BME280;5525;42.648;23.368;2023-04-15T10:13:30;94076.81;;;24.77;23.02
10946;BME280;5525;42.648;23.368;2023-04-15T10:16:05;94059.84;;;24.20;23.83
10946;BME280;5525;42.648;23.368;2023-04-15T10:18:34;94074.38;;;23.08;23.95
10946;BME280;5525;42.648;23.368;2023-04-15T10:21:01;94062.22;;;24.76;22.99
10946;BME280;5525;42.648;23.368;2023-04-15T10:23:29;94057.22;;;25.23;21.88
10946;BME280;5525;42.648;23.368;2023-04-15T10:25:56;94062.06;;;24.64;22.41
10946;BME280;5525;42.648;23.368;2023-04-15T10:28:24;94049.59;;;26.20;21.42
10946;BME280;5525;42.648;23.368;2023-04-15T10:30:52;94049.25;;;28.83;19.74
10946;BME280;5525;42.648;23.368;2023-04-15T10:33:21;94055.59;;;29.45;18.65
10946;BME280;5525;42.648;23.368;2023-04-15T10:35:49;94050.06;;;31.26;17.00
10946;BME280;5525;42.648;23.368;2023-04-15T10:38:33;94051.00;;;29.11;19.26
10946;BME280;5525;42.648;23.368;2023-04-15T10:41:21;94037.06;;;29.51;19.50
10946;BME280;5525;42.648;23.368;2023-04-15T10:43:49;94049.75;;;27.08;21.18
10946;BME280;5525;42.648;23.368;2023-04-15T10:46:33;94042.00;;;26.78;21.06
10946;BME280;5525;42.648;23.368;2023-04-15T10:49:08;94044.47;;;27.26;21.21
10946;BME280;5525;42.648;23.368;2023-04-15T10:51:37;94037.38;;;26.46;21.53
10946;BME280;5525;42.648;23.368;2023-04-15T10:54:09;94047.53;;;27.65;20.96
10946;BME280;5525;42.648;23.368;2023-04-15T10:56:40;94040.09;;;27.62;20.88
10946;BME280;5525;42.648;23.368;2023-04-15T10:59:08;94044.84;;;27.87;20.77
10946;BME280;5525;42.648;23.368;2023-04-15T11:01:51;94032.31;;;28.60;20.64
10946;BME280;5525;42.648;23.368;2023-04-15T11:13:26;94043.13;;;28.24;19.86
10946;BME280;5525;42.648;23.368;2023-04-15T11:15:57;94044.69;;;26.94;21.29
10946;BME280;5525;42.648;23.368;2023-04-15T11:18:27;94041.88;;;26.69;21.76
10946;BME280;5525;42.648;23.368;2023-04-15T11:20:56;94035.16;;;26.41;21.66
10946;BME280;5525;42.648;23.368;2023-04-15T11:23:28;94033.53;;;26.15;22.02
10946;BME280;5525;42.648;23.368;2023-04-15T11:25:55;94027.47;;;26.32;22.00
10946;BME280;5525;42.648;23.368;2023-04-15T11:28:26;94021.66;;;25.41;22.58
10946;BME280;5525;42.648;23.368;2023-04-15T11:30:53;94033.53;;;25.54;22.53
10946;BME280;5525;42.648;23.368;2023-04-15T11:33:22;94035.13;;;26.28;21.53
10946;BME280;5525;42.648;23.368;2023-04-15T11:35:49;94031.47;;;26.73;20.85
10946;BME280;5525;42.648;23.368;2023-04-15T11:38:17;94034.59;;;27.00;20.99
10946;BME280;5525;42.648;23.368;2023-04-15T11:40:44;94042.56;;;27.48;20.48
10946;BME280;5525;42.648;23.368;2023-04-15T11:43:12;94028.13;;;26.65;21.17
10946;BME280;5525;42.648;23.368;2023-04-15T11:45:49;94022.88;;;26.55;21.24
10946;BME280;5525;42.648;23.368;2023-04-15T11:48:17;94025.25;;;27.56;20.25
10946;BME280;5525;42.648;23.368;2023-04-15T11:50:44;94025.72;;;27.30;19.98
10946;BME280;5525;42.648;23.368;2023-04-15T11:53:12;94018.97;;;27.18;19.92
10946;BME280;5525;42.648;23.368;2023-04-15T11:55:43;94023.63;;;25.85;21.15
10946;BME280;5525;42.648;23.368;2023-04-15T11:58:12;94025.16;;;25.26;20.16
10946;BME280;5525;42.648;23.368;2023-04-15T12:00:40;94022.97;;;24.30;20.50
10946;BME280;5525;42.648;23.368;2023-04-15T12:03:19;94021.38;;;24.32;19.96
10946;BME280;5525;42.648;23.368;2023-04-15T12:06:10;94009.25;;;24.46;19.89
10946;BME280;5525;42.648;23.368;2023-04-15T12:09:02;94001.06;;;24.23;21.11
10946;BME280;5525;42.648;23.368;2023-04-15T12:11:37;94007.66;;;23.20;22.56
10946;BME280;5525;42.648;23.368;2023-04-15T12:14:09;94016.78;;;23.17;24.26
10946;BME280;5525;42.648;23.368;2023-04-15T12:16:38;94012.00;;;22.98;23.88
10946;BME280;5525;42.648;23.368;2023-04-15T12:19:09;94010.34;;;23.27;23.79
10946;BME280;5525;42.648;23.368;2023-04-15T12:21:37;94018.75;;;22.67;23.34
10946;BME280;5525;42.648;23.368;2023-04-15T12:24:07;94015.16;;;22.70;23.54
10946;BME280;5525;42.648;23.368;2023-04-15T12:26:37;94007.75;;;22.67;23.76
10946;BME280;5525;42.648;23.368;2023-04-15T12:29:05;94013.34;;;22.87;23.38
10946;BME280;5525;42.648;23.368;2023-04-15T12:31:33;94001.06;;;22.08;23.78
10946;BME280;5525;42.648;23.368;2023-04-15T12:34:00;94006.91;;;21.43;25.27
10946;BME280;5525;42.648;23.368;2023-04-15T12:36:29;94013.59;;;20.98;25.45
10946;BME280;5525;42.648;23.368;2023-04-15T12:39:01;94013.31;;;20.82;25.46
10946;BME280;5525;42.648;23.368;2023-04-15T12:41:27;94010.09;;;20.36;26.56
10946;BME280;5525;42.648;23.368;2023-04-15T12:43:54;94021.00;;;20.46;26.27
10946;BME280;5525;42.648;23.368;2023-04-15T12:46:21;94009.03;;;20.16;25.85
10946;BME280;5525;42.648;23.368;2023-04-15T12:48:48;94028.78;;;20.51;26.78
10946;BME280;5525;42.648;23.368;2023-04-15T12:51:15;94026.03;;;20.51;25.75
10946;BME280;5525;42.648;23.368;2023-04-15T12:53:43;94027.22;;;20.54;25.64
10946;BME280;5525;42.648;23.368;2023-04-15T12:56:10;94028.09;;;20.95;25.82
10946;BME280;5525;42.648;23.368;2023-04-15T12:58:36;94020.38;;;20.76;26.08
10946;BME280;5525;42.648;23.368;2023-04-15T13:01:03;94028.44;;;20.46;26.92
10946;BME280;5525;42.648;23.368;2023-04-15T13:03:30;94023.31;;;20.51;26.25
10946;BME280;5525;42.648;23.368;2023-04-15T13:05:57;94023.84;;;20.29;26.58
10946;BME280;5525;42.648;23.368;2023-04-15T13:08:26;94014.66;;;20.53;26.72
10946;BME280;5525;42.648;23.368;2023-04-15T13:10:54;94019.31;;;20.63;25.82
10946;BME280;5525;42.648;23.368;2023-04-15T13:13:21;94017.78;;;20.55;26.32